createdAt,value
2022-09-28T00:01:16.769Z,99.52
2022-09-28T00:03:45.143Z,99.16
2022-09-28T00:06:13.805Z,98.94
2022-09-28T00:08:40.808Z,98.72
2022-09-28T00:11:08.535Z,98.64
2022-09-28T00:13:35.296Z,98.63
2022-09-28T00:16:17.205Z,98.33
2022-09-28T00:18:45.584Z,98.18
2022-09-28T00:21:15.504Z,98.72
2022-09-28T00:24:01.379Z,98.79
2022-09-28T00:26:30.045Z,99.47
2022-09-28T00:28:59.573Z,99.18
2022-09-28T00:31:29.311Z,99.18
2022-09-28T00:34:00.253Z,99.03
2022-09-28T00:36:32.143Z,99.01
2022-09-28T00:38:59.862Z,99.04
2022-09-28T00:41:27.977Z,99.34
2022-09-28T00:44:15.163Z,99.43
2022-09-28T00:46:42.063Z,98.73
2022-09-28T00:49:14.964Z,98.03
2022-09-28T00:51:44.535Z,98.13
2022-09-28T00:54:12.070Z,99.39
2022-09-28T00:56:42.127Z,99.52
2022-09-28T00:59:09.754Z,99.08
2022-09-28T01:01:37.290Z,98.94
2022-09-28T01:04:04.980Z,98.73
2022-09-28T01:06:34.884Z,99.16
2022-09-28T01:09:10.541Z,99.41
2022-09-28T01:11:39.407Z,99.68
2022-09-28T01:14:10.225Z,99.99
2022-09-28T01:16:48.834Z,100.00
2022-09-28T01:19:51.394Z,100.00
2022-09-28T01:22:36.661Z,100.00
2022-09-28T01:25:25.130Z,100.00
2022-09-28T01:27:59.859Z,100.00
2022-09-28T01:30:26.749Z,100.00
2022-09-28T01:33:05.209Z,100.00
2022-09-28T01:35:41.017Z,100.00
2022-09-28T01:38:10.614Z,100.00
2022-09-28T01:40:37.716Z,100.00
2022-09-28T01:43:09.627Z,100.00
2022-09-28T01:45:44.222Z,100.00
2022-09-28T01:48:14.056Z,100.00
2022-09-28T01:50:43.075Z,100.00
2022-09-28T01:53:21.566Z,100.00
2022-09-28T01:55:53.435Z,100.00
2022-09-28T01:59:12.253Z,100.00
2022-09-28T02:01:46.901Z,100.00
2022-09-28T02:04:21.395Z,100.00
2022-09-28T02:06:54.150Z,100.00
2022-09-28T02:09:33.691Z,100.00
2022-09-28T02:12:06.232Z,100.00
2022-09-28T02:14:37.154Z,100.00
2022-09-28T02:17:04.176Z,100.00
2022-09-28T02:19:32.999Z,100.00
2022-09-28T02:22:14.684Z,100.00
2022-09-28T02:24:56.182Z,100.00
2022-09-28T02:27:25.612Z,100.00
2022-09-28T02:29:52.266Z,100.00
2022-09-28T02:32:20.214Z,100.00
2022-09-28T07:17:32.252Z,100.00
2022-09-28T07:20:07.737Z,100.00
2022-09-28T07:22:43.432Z,100.00
2022-09-28T07:25:10.561Z,100.00
2022-09-28T07:27:37.295Z,100.00
2022-09-28T07:30:07.563Z,100.00
2022-09-28T07:32:37.446Z,100.00
2022-09-28T07:35:09.286Z,100.00
2022-09-28T07:37:36.431Z,100.00
2022-09-28T07:40:23.372Z,100.00
2022-09-28T07:42:50.533Z,100.00
2022-09-28T07:45:18.047Z,100.00
2022-09-28T07:47:45.916Z,100.00
2022-09-28T07:50:13.043Z,100.00
2022-09-28T07:52:39.622Z,100.00
2022-09-28T07:55:07.508Z,100.00
2022-09-28T07:57:34.861Z,100.00
2022-09-28T08:00:02.407Z,100.00
2022-09-28T08:02:29.060Z,100.00
2022-09-28T08:04:56.453Z,100.00
2022-09-28T08:07:25.665Z,100.00
2022-09-28T08:09:52.351Z,100.00
2022-09-28T08:12:19.774Z,100.00
2022-09-28T08:14:47.449Z,100.00
2022-09-28T08:17:14.049Z,100.00
2022-09-28T08:19:59.292Z,100.00
2022-09-28T08:22:25.883Z,100.00
2022-09-28T08:24:52.506Z,100.00
2022-09-28T08:27:19.028Z,100.00
2022-09-28T08:29:45.585Z,99.17
2022-09-28T08:32:12.174Z,100.00
2022-09-28T08:34:40.681Z,100.00
2022-09-28T08:37:12.577Z,100.00
2022-09-28T08:39:39.309Z,99.02
2022-09-28T08:42:31.725Z,98.15
2022-09-28T08:45:07.245Z,96.63
2022-09-28T08:48:03.995Z,96.84
2022-09-28T08:50:33.087Z,96.08
2022-09-28T08:53:16.350Z,95.95
2022-09-28T08:55:45.301Z,92.44
2022-09-28T08:58:15.263Z,90.05
2022-09-28T09:00:49.846Z,92.79
2022-09-28T09:03:20.902Z,93.15
2022-09-28T09:06:20.474Z,92.92
2022-09-28T09:09:02.943Z,90.15
2022-09-28T09:11:44.542Z,90.79
2022-09-28T09:14:47.842Z,88.98
2022-09-28T09:17:38.863Z,90.50
2022-09-28T09:20:15.426Z,90.95
2022-09-28T09:22:58.921Z,90.24
2022-09-28T09:25:38.274Z,88.79
2022-09-28T09:28:29.410Z,89.03
2022-09-28T09:31:03.009Z,89.55
2022-09-28T09:33:35.675Z,89.72
2022-09-28T09:36:02.316Z,89.02
2022-09-28T09:38:37.857Z,89.11
2022-09-28T09:43:44.695Z,89.36
2022-09-28T09:46:31.797Z,88.36
2022-09-28T09:49:06.702Z,87.96
2022-09-28T09:51:52.760Z,86.08
2022-09-28T09:54:27.321Z,85.57
2022-09-28T09:57:03.754Z,83.78
2022-09-28T09:59:35.160Z,83.82
2022-09-28T10:02:12.564Z,84.40
2022-09-28T10:04:44.568Z,85.19
2022-09-28T10:07:20.972Z,84.85
2022-09-28T10:09:49.921Z,85.49
2022-09-28T10:12:20.819Z,86.99
2022-09-28T10:14:47.455Z,87.59
2022-09-28T10:17:19.820Z,89.08
2022-09-28T10:19:46.552Z,88.10
2022-09-28T10:22:22.882Z,89.94
2022-09-28T10:24:53.152Z,90.78
2022-09-28T10:27:27.726Z,90.95
2022-09-28T10:30:10.888Z,92.82
2022-09-28T10:32:41.597Z,90.59
2022-09-28T10:35:18.723Z,89.37
2022-09-28T10:37:55.884Z,90.96
2022-09-28T10:40:45.852Z,90.25
2022-09-28T10:43:18.928Z,89.16
2022-09-28T10:45:46.071Z,91.29
2022-09-28T10:48:20.338Z,88.24
2022-09-28T10:51:06.137Z,89.96
2022-09-28T10:53:34.813Z,91.15
2022-09-28T10:56:08.170Z,93.06
2022-09-28T10:58:40.653Z,92.15
2022-09-28T11:01:15.204Z,93.43
2022-09-28T11:03:52.282Z,94.63
2022-09-28T11:06:31.064Z,93.80
2022-09-28T11:09:03.339Z,95.20
2022-09-28T11:11:31.602Z,95.12
2022-09-28T11:14:04.185Z,95.13
2022-09-28T11:16:33.821Z,94.39
2022-09-28T11:19:23.324Z,94.22
2022-09-28T11:21:49.752Z,94.96
2022-09-28T11:24:19.042Z,94.23
2022-09-28T11:26:49.612Z,94.86
2022-09-28T11:29:41.750Z,93.42
2022-09-28T11:32:13.691Z,94.32
2022-09-28T11:35:02.164Z,92.17
2022-09-28T11:37:37.396Z,92.92
2022-09-28T11:40:16.923Z,95.18
2022-09-28T11:42:46.466Z,93.96
2022-09-28T11:45:31.736Z,90.63
2022-09-28T11:48:19.120Z,91.91
2022-09-28T11:50:48.794Z,93.25
2022-09-28T11:53:27.940Z,93.26
2022-09-28T11:56:08.855Z,94.21
2022-09-28T11:58:42.704Z,93.08
2022-09-28T12:01:18.707Z,94.93
2022-09-28T12:03:52.943Z,90.35
2022-09-28T12:06:31.282Z,88.72
2022-09-28T12:09:19.863Z,88.34
2022-09-28T12:11:52.316Z,88.35
2022-09-28T12:14:26.390Z,90.06
2022-09-28T12:17:11.397Z,91.64
2022-09-28T12:19:51.870Z,89.93
2022-09-28T12:22:30.061Z,90.16
2022-09-28T12:24:58.133Z,89.43
2022-09-28T12:27:31.527Z,86.99
2022-09-28T12:30:21.173Z,87.77
2022-09-28T12:33:15.469Z,89.26
2022-09-28T12:36:03.009Z,90.69
2022-09-28T12:39:14.714Z,90.73
2022-09-28T12:41:52.301Z,91.63
2022-09-28T12:44:35.390Z,91.39
2022-09-28T12:47:14.801Z,90.60
2022-09-28T12:52:53.488Z,91.09
2022-09-28T12:55:20.158Z,90.01
2022-09-28T12:58:02.113Z,90.18
2022-09-28T13:01:02.460Z,88.07
2022-09-28T13:03:47.706Z,89.30
2022-09-28T13:06:29.098Z,89.42
2022-09-28T13:08:58.515Z,89.79
2022-09-28T13:11:38.698Z,90.73
2022-09-28T13:14:38.508Z,91.28
2022-09-28T13:17:31.410Z,91.52
2022-09-28T13:20:05.464Z,91.92
2022-09-28T13:22:55.131Z,93.23
2022-09-28T13:25:25.541Z,92.64
2022-09-28T13:28:03.962Z,91.72
2022-09-28T13:30:34.049Z,92.16
2022-09-28T13:33:04.090Z,93.34
2022-09-28T13:35:32.166Z,93.61
2022-09-28T13:38:17.517Z,93.02
2022-09-28T13:41:06.083Z,92.77
2022-09-28T13:44:03.398Z,93.13
2022-09-28T13:46:51.905Z,92.41
2022-09-28T13:49:26.905Z,93.35
2022-09-28T13:51:59.590Z,94.71
2022-09-28T13:54:50.501Z,93.71
2022-09-28T13:57:47.204Z,94.22
2022-09-28T14:00:29.541Z,94.78
2022-09-28T14:03:04.401Z,94.49
2022-09-28T14:06:03.511Z,95.15
2022-09-28T14:08:38.449Z,95.32
2022-09-28T14:11:34.931Z,96.14
2022-09-28T14:14:07.562Z,95.99
2022-09-28T14:16:44.440Z,96.70
2022-09-28T14:19:24.449Z,97.52
2022-09-28T14:22:00.480Z,98.01
2022-09-28T14:24:58.106Z,99.00
2022-09-28T14:27:36.712Z,98.54
2022-09-28T14:30:16.194Z,98.50
2022-09-28T14:32:48.185Z,98.45
2022-09-28T14:35:31.835Z,98.17
2022-09-28T14:38:40.622Z,97.92
2022-09-28T14:41:13.825Z,97.92
2022-09-28T14:43:46.459Z,96.32
2022-09-28T14:46:17.098Z,94.07
2022-09-28T14:48:50.307Z,94.06
2022-09-28T14:51:40.113Z,94.43
2022-09-28T14:54:12.469Z,95.31
2022-09-28T14:56:45.586Z,95.50
2022-09-28T14:59:17.330Z,96.63
2022-09-28T15:01:54.113Z,96.90
2022-09-28T15:04:23.039Z,96.50
2022-09-28T15:06:51.665Z,96.50
2022-09-28T15:09:32.987Z,95.86
2022-09-28T15:12:16.200Z,96.37
2022-09-28T15:14:51.726Z,96.51
2022-09-28T15:17:40.201Z,95.88
2022-09-28T15:20:23.305Z,94.13
2022-09-28T15:22:57.449Z,94.38
2022-09-28T15:25:27.513Z,96.00
2022-09-28T15:27:56.612Z,96.27
2022-09-28T15:30:26.238Z,95.04
2022-09-28T15:32:56.726Z,96.21
2022-09-28T15:35:27.846Z,96.56
2022-09-28T15:37:55.470Z,95.95
2022-09-28T15:40:27.934Z,96.16
2022-09-28T15:42:59.059Z,96.16
2022-09-28T15:45:35.151Z,96.61
2022-09-28T15:48:40.995Z,96.20
2022-09-28T15:51:12.827Z,95.10
2022-09-28T15:53:58.216Z,95.68
2022-09-28T15:56:26.140Z,95.66
2022-09-28T15:59:31.996Z,95.18
2022-09-28T16:02:22.712Z,95.31
2022-09-28T16:04:54.124Z,94.93
2022-09-28T16:07:23.369Z,95.06
2022-09-28T16:10:00.740Z,95.17
2022-09-28T16:12:54.193Z,95.67
2022-09-28T16:15:31.160Z,96.02
2022-09-28T16:18:02.658Z,96.58
2022-09-28T16:20:36.477Z,96.66
2022-09-28T16:23:15.078Z,97.12
2022-09-28T16:25:51.836Z,96.47
2022-09-28T16:28:48.841Z,96.85
2022-09-28T16:31:15.639Z,97.53
2022-09-28T16:34:10.835Z,97.47
2022-09-28T16:36:45.455Z,98.36
2022-09-28T16:39:13.554Z,98.63
2022-09-28T16:41:44.230Z,98.90
2022-09-28T16:44:19.213Z,99.04
2022-09-28T16:46:46.404Z,98.74
2022-09-28T16:49:19.018Z,98.87
2022-09-28T16:51:47.044Z,98.99
2022-09-28T16:54:36.453Z,99.70
2022-09-28T16:57:04.485Z,100.00
2022-09-28T16:59:31.881Z,100.00
2022-09-28T17:01:58.976Z,100.00
2022-09-28T17:04:26.417Z,100.00
2022-09-28T17:06:55.279Z,100.00
2022-09-28T17:09:22.931Z,99.93
2022-09-28T17:11:56.087Z,99.95
2022-09-28T17:14:23.709Z,100.00
2022-09-28T17:17:12.654Z,100.00
2022-09-28T17:19:40.682Z,99.77
2022-09-28T17:22:08.693Z,100.00
2022-09-28T17:24:35.408Z,100.00
2022-09-28T17:27:03.341Z,100.00
2022-09-28T17:29:30.384Z,100.00
2022-09-28T17:31:56.880Z,100.00
2022-09-28T17:34:23.841Z,100.00
2022-09-28T17:36:50.457Z,100.00
2022-09-28T17:39:19.201Z,100.00
2022-09-28T17:41:45.854Z,100.00
2022-09-28T17:44:16.418Z,100.00
2022-09-28T17:46:47.403Z,100.00
2022-09-28T17:49:14.614Z,100.00
2022-09-28T17:51:41.359Z,100.00
2022-09-28T17:54:08.717Z,100.00
2022-09-28T17:56:36.633Z,100.00
2022-09-28T17:59:06.187Z,100.00
2022-09-28T18:01:35.983Z,100.00
2022-09-28T18:04:05.122Z,100.00
2022-09-28T18:06:34.842Z,100.00
2022-09-28T18:09:05.238Z,100.00
2022-09-28T18:11:33.229Z,100.00
2022-09-28T18:14:00.064Z,100.00
2022-09-28T18:16:28.744Z,100.00
2022-09-28T18:18:55.594Z,100.00
2022-09-28T18:21:22.287Z,100.00
2022-09-28T18:23:48.868Z,100.00
2022-09-28T18:26:16.883Z,100.00
2022-09-28T18:28:43.506Z,100.00
2022-09-28T18:31:12.186Z,100.00
2022-09-28T18:33:39.303Z,100.00
2022-09-28T18:36:07.272Z,100.00
2022-09-28T18:38:37.911Z,100.00
2022-09-28T18:41:23.420Z,100.00
2022-09-28T18:43:50.664Z,100.00
2022-09-28T18:46:21.015Z,100.00
2022-09-28T18:48:47.852Z,100.00
2022-09-28T18:51:14.549Z,100.00
2022-09-28T18:53:41.168Z,100.00
2022-09-28T18:56:18.269Z,100.00
2022-09-28T18:58:45.781Z,100.00
2022-09-28T19:01:31.683Z,100.00
2022-09-28T19:04:00.404Z,100.00
2022-09-28T19:06:27.743Z,100.00
2022-09-28T19:08:55.826Z,100.00
2022-09-28T19:11:23.298Z,100.00
2022-09-28T19:13:50.442Z,100.00
2022-09-28T19:16:20.898Z,100.00
2022-09-28T19:18:48.614Z,100.00
2022-09-28T19:21:15.879Z,100.00
2022-09-28T19:23:48.927Z,100.00
2022-09-28T19:26:24.505Z,100.00
2022-09-28T19:28:51.264Z,100.00
2022-09-28T19:31:18.229Z,100.00
2022-09-28T19:33:48.194Z,100.00
2022-09-28T19:36:21.898Z,100.00
2022-09-28T19:38:48.565Z,100.00
2022-09-28T19:41:39.610Z,100.00
2022-09-28T19:44:29.965Z,100.00
2022-09-28T19:47:04.834Z,100.00
2022-09-28T19:49:36.989Z,100.00
2022-09-28T19:52:15.619Z,100.00
2022-09-28T19:54:44.575Z,100.00
2022-09-28T19:57:13.220Z,100.00
2022-09-28T19:59:39.808Z,100.00
2022-09-28T20:02:07.556Z,100.00
2022-09-28T20:04:34.201Z,100.00
2022-09-28T20:07:01.950Z,100.00
2022-09-28T20:09:28.825Z,100.00
2022-09-28T20:11:55.621Z,100.00
2022-09-28T20:14:24.500Z,100.00
2022-09-28T20:16:53.406Z,100.00
2022-09-28T20:19:21.714Z,100.00
2022-09-28T20:21:48.966Z,100.00
2022-09-28T20:24:17.123Z,100.00
2022-09-28T20:26:44.717Z,100.00
2022-09-28T20:29:11.840Z,100.00
2022-09-28T20:31:38.888Z,100.00
2022-09-28T20:34:06.547Z,100.00
2022-09-28T20:36:33.639Z,100.00
2022-09-28T20:39:04.384Z,100.00
2022-09-28T20:41:36.742Z,100.00
2022-09-28T20:44:06.189Z,100.00
2022-09-28T20:46:34.682Z,100.00
2022-09-28T20:49:01.664Z,100.00
2022-09-28T20:51:28.665Z,100.00
2022-09-28T20:53:57.048Z,100.00
